Time;durP1;ratioP1;P1;durP2;ratioP2;P2;SDS_P1;SDS_P2;PMS_P1;PMS_P2;Temp;Humidity;BMP_temperature;BMP_pressure;BME280_temperature;BME280_humidity;BME280_pressure;Samples;Min_cycle;Max_cycle;Signal;HPM_P1;HPM_P2
2021/03/14 00:01:09;;;;;;;34.92;22.87;;;;;;;1.75;66.05;100897.61;1769847;80;25734;-58
2021/03/14 00:03:37;;;;;;;34.38;21.35;;;;;;;1.74;66.25;100899.87;1749711;82;25609;-58
2021/03/14 00:06:06;;;;;;;38.23;21.75;;;;;;;1.72;66.34;100899.47;1756433;80;25768;-58
2021/03/14 00:08:34;;;;;;;39.03;23.70;;;;;;;1.73;66.61;100896.38;1739437;81;27537;-58
2021/03/14 00:11:07;;;;;;;36.55;22.58;;;;;;;1.79;66.82;100893.88;1733335;82;25459;-59
2021/03/14 00:13:39;;;;;;;34.88;21.62;;;;;;;1.83;66.91;100896.76;1763857;81;25719;-59
2021/03/14 00:16:09;;;;;;;41.10;24.02;;;;;;;1.87;67.03;100892.55;1733550;82;25744;-58
2021/03/14 00:18:41;;;;;;;46.02;24.32;;;;;;;1.94;67.16;100884.27;1733523;82;25728;-58
2021/03/14 00:21:10;;;;;;;38.23;23.05;;;;;;;1.98;67.17;100878.73;1763818;80;27525;-58
2021/03/14 00:23:38;;;;;;;40.30;23.92;;;;;;;2.01;66.96;100871.11;1733455;82;26066;-58
2021/03/14 00:26:07;;;;;;;40.67;23.38;;;;;;;2.05;66.89;100866.49;1733429;82;26424;-58
2021/03/14 00:28:35;;;;;;;40.17;22.77;;;;;;;2.06;66.91;100864.23;1791194;79;25612;-59
2021/03/14 00:31:04;;;;;;;37.90;24.07;;;;;;;2.06;66.98;100865.08;1801892;79;25528;-58
2021/03/14 00:33:32;;;;;;;41.18;24.57;;;;;;;2.05;66.91;100858.53;1771176;79;27647;-58
2021/03/14 00:36:01;;;;;;;36.65;24.45;;;;;;;2.02;66.77;100856.88;1749733;82;26823;-58
2021/03/14 00:38:29;;;;;;;36.65;23.35;;;;;;;1.94;66.69;100849.77;1739370;81;25706;-58
2021/03/14 00:40:57;;;;;;;38.05;23.85;;;;;;;1.85;66.99;100845.81;1779311;80;25547;-59
2021/03/14 00:43:26;;;;;;;44.45;24.23;;;;;;;1.77;66.71;100846.20;1739706;81;25748;-59
2021/03/14 00:45:54;;;;;;;43.17;23.73;;;;;;;1.75;66.90;100839.26;1779514;79;28515;-59
2021/03/14 00:48:24;;;;;;;43.40;25.80;;;;;;;1.73;66.95;100842.00;1746398;81;26120;-59
2021/03/14 00:50:53;;;;;;;40.08;23.65;;;;;;;1.72;67.07;100841.60;1739778;81;25711;-59
2021/03/14 00:53:23;;;;;;;41.33;24.72;;;;;;;1.71;68.14;100853.14;1778824;79;25730;-59
2021/03/14 00:55:51;;;;;;;41.63;25.05;;;;;;;1.65;67.63;100849.48;1747520;82;26092;-59
2021/03/14 00:58:20;;;;;;;43.92;24.45;;;;;;;1.62;67.74;100849.63;1746838;82;27500;-58
2021/03/14 01:00:49;;;;;;;38.10;24.32;;;;;;;1.64;68.00;100848.61;1810475;78;25808;-58
2021/03/14 01:03:17;;;;;;;44.98;25.72;;;;;;;1.68;68.24;100847.98;1834068;78;25661;-58
2021/03/14 01:05:45;;;;;;;42.90;25.57;;;;;;;1.71;68.14;100843.37;1833977;78;25615;-58
2021/03/14 01:08:17;;;;;;;45.35;26.52;;;;;;;1.76;69.28;100836.52;1775220;79;25742;-58
2021/03/14 01:10:46;;;;;;;42.45;25.52;;;;;;;1.75;68.58;100828.64;1748456;81;28486;-58
2021/03/14 01:13:16;;;;;;;39.23;23.60;;;;;;;1.82;68.57;100830.05;1768968;81;25730;-58
2021/03/14 01:15:45;;;;;;;39.60;25.37;;;;;;;1.84;68.59;100836.98;1748521;82;25625;-58
2021/03/14 01:18:13;;;;;;;42.00;26.62;;;;;;;1.93;68.65;100833.50;1770373;79;26479;-58
2021/03/14 01:20:43;;;;;;;46.05;26.12;;;;;;;1.97;68.69;100837.20;1748472;82;25510;-58
2021/03/14 01:23:11;;;;;;;46.15;28.47;;;;;;;2.01;68.72;100835.28;1770331;79;26912;-58
2021/03/14 01:25:39;;;;;;;45.55;26.93;;;;;;;2.01;68.60;100834.80;1748417;82;25654;-58
2021/03/14 01:28:07;;;;;;;44.77;26.65;;;;;;;2.01;68.60;100830.82;1722540;82;25779;-58
2021/03/14 01:30:36;;;;;;;49.80;29.25;;;;;;;1.99;68.18;100815.92;1739769;82;25823;-58
2021/03/14 01:33:06;;;;;;;47.10;27.45;;;;;;;1.95;68.05;100819.66;1739804;81;25775;-58
2021/03/14 01:35:35;;;;;;;44.85;26.87;;;;;;;1.90;68.02;100817.24;1718584;83;27604;-58
2021/03/14 01:38:03;;;;;;;45.80;28.05;;;;;;;1.83;68.00;100816.73;1739617;82;27460;-58
2021/03/14 01:40:32;;;;;;;47.73;26.42;;;;;;;1.82;68.01;100818.11;1739360;81;25973;-58
2021/03/14 01:43:00;;;;;;;43.02;26.73;;;;;;;1.81;67.97;100815.94;1739461;82;25665;-58
2021/03/14 01:45:27;;;;;;;42.85;26.82;;;;;;;1.81;68.18;100813.28;1739475;81;25915;-58
2021/03/14 01:47:59;;;;;;;44.53;26.10;;;;;;;1.81;68.13;100820.37;1739180;81;27610;-59
2021/03/14 01:50:30;;;;;;;45.28;25.95;;;;;;;1.77;68.19;100815.69;1739422;82;25661;-58
2021/03/14 01:52:58;;;;;;;38.55;24.43;;;;;;;1.75;68.24;100812.25;1765777;80;25703;-58
2021/03/14 01:55:26;;;;;;;40.55;25.48;;;;;;;1.72;68.22;100808.45;1770059;79;26344;-58
2021/03/14 01:57:56;;;;;;;39.15;23.45;;;;;;;1.71;68.15;100802.75;1769651;80;26229;-58
2021/03/14 02:00:27;;;;;;;44.42;26.23;;;;;;;1.75;68.41;100802.13;1737780;82;28542;-58
2021/03/14 02:02:55;;;;;;;42.13;25.05;;;;;;;1.79;68.54;100803.70;1749217;82;25506;-58
2021/03/14 02:05:23;;;;;;;39.20;24.67;;;;;;;1.84;68.72;100810.94;1749284;82;25664;-58
2021/03/14 02:07:54;;;;;;;42.75;25.25;;;;;;;1.81;68.64;100813.28;1742885;82;26475;-58
2021/03/14 02:10:27;;;;;;;45.23;27.27;;;;;;;1.81;68.62;100813.28;1721064;83;25712;-58
2021/03/14 02:13:06;;;;;;;50.83;29.70;;;;;;;1.80;68.39;100802.73;1736657;80;27526;-58
2021/03/14 02:15:39;;;;;;;47.33;29.52;;;;;;;1.77;68.15;100802.91;1743669;82;25652;-58
2021/03/14 02:18:09;;;;;;;49.80;30.05;;;;;;;1.75;67.92;100807.43;1743816;82;25674;-58
2021/03/14 02:20:38;;;;;;;53.98;31.05;;;;;;;1.71;67.89;100804.08;1743627;82;25611;-58
2021/03/14 02:23:35;;;;;;;44.53;27.25;;;;;;;1.65;67.63;100812.36;1743597;82;26185;-58
2021/03/14 02:26:14;;;;;;;43.60;27.30;;;;;;;1.56;67.51;100794.66;1743476;80;27578;-59
2021/03/14 02:28:44;;;;;;;50.20;28.98;;;;;;;1.50;67.54;100796.75;1772931;80;26137;-60
2021/03/14 02:31:13;;;;;;;42.13;25.72;;;;;;;1.45;67.76;100803.61;1781909;80;25521;-59
2021/03/14 02:33:42;;;;;;;45.92;28.45;;;;;;;1.41;67.87;100796.73;1761782;80;25771;-59
2021/03/14 02:36:14;;;;;;;49.50;27.52;;;;;;;1.38;68.04;100803.05;1750738;80;25708;-59
2021/03/14 02:38:43;;;;;;;47.70;29.07;;;;;;;1.35;68.22;100807.64;1750801;81;28390;-59
2021/03/14 02:41:12;;;;;;;49.18;27.50;;;;;;;1.30;67.97;100805.70;1736349;81;25691;-59
2021/03/14 02:43:42;;;;;;;46.90;28.20;;;;;;;1.29;68.39;100801.33;1734994;82;25725;-59
2021/03/14 02:46:11;;;;;;;46.58;27.73;;;;;;;1.29;68.56;100807.95;1734981;82;25602;-59
2021/03/14 02:48:41;;;;;;;46.92;28.77;;;;;;;1.26;68.54;100812.91;1734821;82;25746;-59
2021/03/14 02:51:10;;;;;;;48.75;27.82;;;;;;;1.27;68.81;100803.19;1734773;82;28421;-59
2021/03/14 02:53:39;;;;;;;53.63;29.20;;;;;;;1.25;68.78;100800.15;1734623;82;25666;-59
2021/03/14 02:56:08;;;;;;;47.27;30.08;;;;;;;1.21;68.55;100795.07;1771639;79;25949;-60
2021/03/14 02:58:38;;;;;;;51.77;29.63;;;;;;;1.21;68.50;100799.05;1793758;79;25675;-60
2021/03/14 03:01:09;;;;;;;49.67;29.10;;;;;;;1.18;68.33;100804.48;1793696;79;26181;-59
2021/03/14 03:03:38;;;;;;;50.05;29.10;;;;;;;1.12;68.23;100808.77;1793865;79;27592;-59
2021/03/14 03:06:06;;;;;;;47.05;29.77;;;;;;;1.05;68.27;100812.17;1793470;79;26119;-59
2021/03/14 03:08:35;;;;;;;48.05;28.30;;;;;;;1.03;68.44;100802.14;1777385;79;25714;-59
2021/03/14 03:11:10;;;;;;;49.33;28.77;;;;;;;1.04;68.62;100802.50;1741234;81;25847;-60
2021/03/14 03:13:39;;;;;;;50.92;29.95;;;;;;;1.04;68.80;100790.59;1741177;80;26124;-59
2021/03/14 03:16:11;;;;;;;51.48;30.25;;;;;;;1.05;68.79;100785.68;1762437;79;27476;-59
2021/03/14 03:18:41;;;;;;;51.58;28.67;;;;;;;1.03;68.76;100795.04;1762294;80;25679;-59
2021/03/14 03:21:11;;;;;;;50.12;29.30;;;;;;;1.01;68.99;100788.11;1762327;80;25696;-59
2021/03/14 03:23:40;;;;;;;50.78;28.77;;;;;;;1.02;69.20;100777.91;1762411;80;25735;-60
2021/03/14 03:26:09;;;;;;;49.45;28.57;;;;;;;1.09;69.32;100777.98;1762394;79;26369;-59
2021/03/14 03:28:38;;;;;;;46.33;28.30;;;;;;;1.15;69.31;100775.03;1785414;78;27556;-59
2021/03/14 03:31:08;;;;;;;50.38;29.35;;;;;;;1.20;69.23;100774.35;1793735;79;25710;-59
2021/03/14 03:33:37;;;;;;;52.53;29.20;;;;;;;1.19;68.86;100772.63;1793430;79;37098;-59
2021/03/14 03:36:07;;;;;;;55.78;29.37;;;;;;;1.16;68.63;100758.20;1793687;79;25915;-59
2021/03/14 03:38:36;;;;;;;50.30;30.85;;;;;;;1.14;68.55;100763.19;1793743;78;25668;-59
2021/03/14 03:41:05;;;;;;;55.67;30.50;;;;;;;1.08;68.40;100762.54;1793713;79;28540;-59
2021/03/14 03:43:36;;;;;;;50.78;29.92;;;;;;;1.03;68.29;100767.22;1802732;78;26207;-59
2021/03/14 03:46:09;;;;;;;57.55;31.35;;;;;;;0.98;68.27;100759.98;1741057;81;25690;-59
2021/03/14 03:48:55;;;;;;;47.60;28.20;;;;;;;0.92;68.24;100758.48;1771483;81;26450;-59
2021/03/14 03:51:26;;;;;;;52.58;29.70;;;;;;;0.84;68.11;100757.12;1741017;82;26075;-59
2021/03/14 03:54:00;;;;;;;52.95;29.80;;;;;;;0.79;68.24;100752.05;1771635;80;27531;-59
2021/03/14 03:56:29;;;;;;;53.02;30.88;;;;;;;0.78;68.51;100751.65;1741047;82;25685;-59
2021/03/14 03:59:00;;;;;;;54.88;30.97;;;;;;;0.77;68.83;100742.86;1713022;82;25774;-59
2021/03/14 04:01:29;;;;;;;54.60;30.30;;;;;;;0.82;69.06;100739.11;1739863;82;25675;-60
2021/03/14 04:03:59;;;;;;;51.00;29.40;;;;;;;0.85;69.15;100737.66;1771348;80;25687;-59
2021/03/14 04:06:28;;;;;;;51.85;30.95;;;;;;;0.89;69.32;100740.56;1730435;82;28598;-59
2021/03/14 04:08:57;;;;;;;61.35;32.00;;;;;;;0.93;69.42;100739.45;1751043;81;25630;-59
2021/03/14 04:11:25;;;;;;;75.40;31.85;;;;;;;0.94;69.40;100738.53;1712481;81;25754;-59
2021/03/14 04:13:55;;;;;;;60.67;33.38;;;;;;;0.96;69.49;100733.15;1740895;80;25659;-60
2021/03/14 04:16:24;;;;;;;61.00;34.05;;;;;;;0.97;69.40;100727.80;1741044;81;25656;-59
2021/03/14 04:18:54;;;;;;;61.25;34.80;;;;;;;0.97;69.44;100733.55;1741033;82;27695;-60
2021/03/14 04:21:25;;;;;;;58.20;33.05;;;;;;;0.94;69.53;100719.50;1740979;80;25713;-59
2021/03/14 04:23:54;;;;;;;60.63;33.60;;;;;;;0.94;69.65;100718.66;1740962;82;25798;-59
2021/03/14 04:26:23;;;;;;;58.87;32.28;;;;;;;0.97;69.76;100717.64;1736486;80;25688;-60
2021/03/14 04:28:55;;;;;;;59.65;31.23;;;;;;;1.01;69.90;100712.60;1702232;81;25686;-60
2021/03/14 04:31:25;;;;;;;63.45;32.15;;;;;;;1.05;70.22;100719.00;1696707;83;27534;-60
2021/03/14 04:33:55;;;;;;;53.17;30.12;;;;;;;1.11;70.32;100716.52;1705400;84;25727;-60
2021/03/14 04:36:25;;;;;;;61.25;32.08;;;;;;;1.17;70.53;100717.52;1690937;84;25681;-60
2021/03/14 04:38:55;;;;;;;65.80;31.87;;;;;;;1.22;70.77;100716.81;1725526;82;25712;-60
2021/03/14 04:41:23;;;;;;;58.87;32.42;;;;;;;1.31;71.29;100716.83;1722563;82;25759;-59
2021/03/14 04:43:52;;;;;;;58.48;29.75;;;;;;;1.38;71.34;100721.36;1702479;83;27534;-59
2021/03/14 04:46:20;;;;;;;63.38;33.40;;;;;;;1.48;71.33;100717.27;1700533;84;26218;-60
2021/03/14 04:48:49;;;;;;;61.42;32.93;;;;;;;1.57;71.41;100718.60;1700262;84;25623;-60
2021/03/14 04:51:19;;;;;;;50.83;29.32;;;;;;;1.64;71.49;100720.48;1698188;84;25749;-60
2021/03/14 04:53:47;;;;;;;61.50;31.15;;;;;;;1.63;70.83;100721.41;1700607;84;25913;-60
2021/03/14 04:56:15;;;;;;;55.10;31.50;;;;;;;1.63;70.76;100716.95;1700661;84;27613;-59
2021/03/14 04:58:45;;;;;;;53.58;31.00;;;;;;;1.64;70.60;100713.84;1691117;82;25781;-59
2021/03/14 05:01:18;;;;;;;61.65;33.20;;;;;;;1.66;70.43;100712.82;1720579;81;25668;-60
2021/03/14 05:03:50;;;;;;;56.23;33.50;;;;;;;1.67;70.41;100713.66;1713271;82;25751;-60
2021/03/14 05:06:19;;;;;;;61.77;33.95;;;;;;;1.67;70.27;100713.66;1714298;82;25729;-60
2021/03/14 05:08:50;;;;;;;56.77;30.82;;;;;;;1.68;70.18;100707.42;1734687;81;28896;-59
2021/03/14 05:11:20;;;;;;;54.67;29.10;;;;;;;1.67;69.93;100718.97;1712005;82;25721;-59
2021/03/14 05:13:49;;;;;;;54.18;29.75;;;;;;;1.67;69.70;100713.66;1720659;83;25718;-60
2021/03/14 05:16:18;;;;;;;54.88;29.35;;;;;;;1.66;69.68;100711.49;1710107;82;26452;-59
2021/03/14 05:18:47;;;;;;;54.98;30.77;;;;;;;1.69;69.70;100713.12;1680529;83;27111;-59
2021/03/14 05:21:15;;;;;;;52.43;27.80;;;;;;;1.74;70.01;100721.72;1720691;82;27519;-60
2021/03/14 05:23:44;;;;;;;53.08;30.23;;;;;;;1.79;70.11;100718.82;1709904;83;26170;-60
2021/03/14 05:26:14;;;;;;;57.40;29.23;;;;;;;1.83;70.00;100722.55;1710237;83;25557;-59
2021/03/14 05:28:45;;;;;;;57.55;28.65;;;;;;;1.92;70.23;100715.05;1702964;82;26403;-61
2021/03/14 05:31:30;;;;;;;64.95;33.45;;;;;;;2.00;70.24;100714.16;1668455;86;26279;-59
2021/03/14 05:34:02;;;;;;;61.45;35.85;;;;;;;2.05;70.44;100719.22;1747873;80;27445;-59
2021/03/14 05:36:32;;;;;;;64.07;35.65;;;;;;;2.12;70.36;100718.78;1757435;81;25707;-60
2021/03/14 05:39:04;;;;;;;56.88;34.45;;;;;;;2.27;70.54;100717.59;1705095;82;25794;-60
2021/03/14 05:41:36;;;;;;;55.05;31.35;;;;;;;2.39;70.42;100716.89;1717496;82;26205;-60
2021/03/14 05:44:06;;;;;;;55.03;31.15;;;;;;;2.50;70.30;100709.19;1736975;81;26043;-60
2021/03/14 05:46:35;;;;;;;58.92;32.17;;;;;;;2.58;69.93;100714.09;1726429;82;28435;-60
2021/03/14 05:49:06;;;;;;;58.33;33.60;;;;;;;2.68;69.89;100718.39;1736781;81;25670;-60
2021/03/14 05:51:41;;;;;;;55.75;33.95;;;;;;;2.69;69.79;100716.13;1701992;82;25521;-60
2021/03/14 05:54:12;;;;;;;61.65;35.88;;;;;;;2.69;69.78;100717.45;1731359;80;26405;-60
2021/03/14 05:56:43;;;;;;;63.13;36.17;;;;;;;2.74;69.90;100718.03;1701217;83;25749;-60
2021/03/14 05:59:15;;;;;;;61.80;36.33;;;;;;;2.78;69.95;100717.42;1700434;83;27703;-60
2021/03/14 06:01:51;;;;;;;61.55;36.58;;;;;;;2.85;70.12;100717.91;1700458;84;26327;-60
2021/03/14 06:04:20;;;;;;;60.58;35.70;;;;;;;2.89;69.85;100726.94;1700431;84;25719;-59
2021/03/14 06:06:48;;;;;;;66.53;40.17;;;;;;;2.96;70.00;100723.47;1700606;84;25677;-60
2021/03/14 06:09:17;;;;;;;75.55;44.08;;;;;;;3.04;69.89;100719.05;1722768;83;26067;-60
2021/03/14 06:11:45;;;;;;;74.30;41.88;;;;;;;3.13;70.10;100722.50;1723244;82;27539;-59
2021/03/14 06:14:14;;;;;;;70.95;41.80;;;;;;;3.24;69.98;100721.86;1706846;82;25666;-60
2021/03/14 06:16:42;;;;;;;77.58;45.10;;;;;;;3.34;70.11;100723.50;1713446;83;25655;-60
2021/03/14 06:19:11;;;;;;;72.50;40.98;;;;;;;3.44;70.33;100730.86;1770780;80;25699;-60
2021/03/14 06:21:39;;;;;;;61.85;36.42;;;;;;;3.56;70.59;100738.58;1735884;81;25797;-60
2021/03/14 06:24:10;;;;;;;65.37;36.20;;;;;;;3.69;71.02;100737.36;1712014;82;28395;-60
2021/03/14 06:26:46;;;;;;;60.05;32.60;;;;;;;3.80;70.88;100738.52;1733266;81;25783;-60
2021/03/14 06:29:21;;;;;;;57.75;32.83;;;;;;;3.94;72.10;100733.20;1714800;82;25775;-60
2021/03/14 06:32:02;;;;;;;55.08;29.90;;;;;;;4.05;71.76;100734.73;1748024;80;25646;-59
2021/03/14 06:34:34;;;;;;;68.00;30.20;;;;;;;4.20;71.90;100736.92;1723987;81;26265;-59
2021/03/14 06:37:15;;;;;;;55.70;29.32;;;;;;;4.42;72.13;100737.38;1718019;81;28253;-59
2021/03/14 06:39:49;;;;;;;48.63;28.35;;;;;;;4.62;71.71;100724.94;1716514;82;25732;-60
2021/03/14 06:42:31;;;;;;;49.18;27.85;;;;;;;4.84;72.05;100724.40;1726937;80;25719;-60
2021/03/14 06:45:08;;;;;;;47.93;27.40;;;;;;;4.96;71.45;100716.56;1731716;82;25711;-60
2021/03/14 06:47:47;;;;;;;45.08;25.68;;;;;;;5.07;71.33;100711.84;1728952;82;25648;-60
2021/03/14 06:50:37;;;;;;;48.02;25.95;;;;;;;5.17;71.66;100708.94;1790391;79;28935;-60
2021/03/14 06:53:18;;;;;;;49.33;26.77;;;;;;;5.20;71.00;100710.58;1782463;78;26188;-60
2021/03/14 06:55:50;;;;;;;48.95;26.70;;;;;;;5.23;70.79;100713.02;1796841;79;25814;-60
2021/03/14 06:58:27;;;;;;;45.78;27.15;;;;;;;5.28;70.95;100707.75;1784451;79;26450;-60
2021/03/14 07:01:18;;;;;;;46.63;27.17;;;;;;;5.38;70.53;100701.80;1783812;79;26081;-60
2021/03/14 07:03:54;;;;;;;51.45;28.40;;;;;;;5.53;70.19;100700.73;1768293;80;28456;-60
2021/03/14 07:06:26;;;;;;;49.30;29.67;;;;;;;5.64;69.67;100696.86;1725374;81;26148;-60
2021/03/14 07:08:57;;;;;;;44.58;24.90;;;;;;;5.80;69.26;100693.11;1715582;82;25688;-60
2021/03/14 07:11:44;;;;;;;47.03;26.00;;;;;;;5.95;68.66;100689.84;1725645;81;25679;-60
2021/03/14 07:14:15;;;;;;;49.10;28.92;;;;;;;6.09;68.65;100683.09;1725815;82;25703;-60
2021/03/14 07:16:58;;;;;;;48.68;28.80;;;;;;;6.31;68.16;100672.69;1731148;81;27524;-60
2021/03/14 07:19:29;;;;;;;50.58;29.35;;;;;;;6.44;67.75;100672.15;1726219;82;33033;-59
2021/03/14 07:22:10;;;;;;;51.20;29.77;;;;;;;6.58;67.65;100656.44;1728575;82;25754;-59
2021/03/14 07:24:42;;;;;;;50.67;30.30;;;;;;;6.67;67.15;100648.23;1738268;81;25751;-60
2021/03/14 07:27:20;;;;;;;46.98;28.35;;;;;;;6.77;66.92;100635.86;1734163;82;26218;-59
2021/03/14 07:29:50;;;;;;;44.08;27.22;;;;;;;6.85;66.96;100636.17;1740126;82;27540;-60
2021/03/14 07:32:19;;;;;;;54.75;30.15;;;;;;;6.87;66.46;100623.52;1737857;82;25669;-61
2021/03/14 07:34:47;;;;;;;56.63;29.67;;;;;;;6.80;66.09;100618.77;1710618;83;25883;-60
2021/03/14 07:37:16;;;;;;;53.65;30.62;;;;;;;6.76;66.29;100610.13;1710573;83;25715;-60
2021/03/14 07:39:48;;;;;;;50.75;28.47;;;;;;;6.83;66.14;100618.05;1721896;82;25944;-60
2021/03/14 07:42:21;;;;;;;53.28;26.85;;;;;;;6.83;66.05;100616.70;1719663;82;27531;-60
2021/03/14 07:44:50;;;;;;;56.30;29.10;;;;;;;6.91;66.48;100620.12;1809665;78;25666;-60
2021/03/14 07:47:20;;;;;;;61.05;30.40;;;;;;;7.00;66.63;100621.26;1799715;79;25642;-60
2021/03/14 07:49:52;;;;;;;54.10;29.35;;;;;;;7.09;66.82;100599.16;1782081;79;25728;-60
2021/03/14 07:52:31;;;;;;;61.75;30.15;;;;;;;7.20;66.63;100597.85;1768138;81;25750;-59
2021/03/14 07:55:05;;;;;;;55.43;27.98;;;;;;;7.34;67.01;100595.45;1731003;81;27524;-60
2021/03/14 07:57:34;;;;;;;51.55;25.82;;;;;;;7.43;65.74;100589.84;1737566;80;26106;-60
2021/03/14 08:00:36;;;;;;;56.37;30.70;;;;;;;7.51;65.57;100591.42;1747292;81;25486;-60
2021/03/14 08:03:09;;;;;;;53.08;28.60;;;;;;;7.57;64.98;100599.97;1799778;78;25559;-59
2021/03/14 08:05:43;;;;;;;63.25;32.42;;;;;;;7.68;64.99;100601.28;1730533;81;26081;-59
2021/03/14 08:08:28;;;;;;;57.25;30.85;;;;;;;7.79;64.70;100601.30;1727343;82;27517;-59
2021/03/14 08:10:56;;;;;;;53.15;29.15;;;;;;;7.88;64.37;100594.36;1702422;82;25767;-59
2021/03/14 08:13:35;;;;;;;60.90;29.45;;;;;;;8.01;63.91;100600.05;1715960;82;25799;-59
2021/03/14 08:16:10;;;;;;;57.43;29.50;;;;;;;8.13;63.73;100598.56;1723285;82;26520;-59
2021/03/14 08:18:51;;;;;;;54.63;29.23;;;;;;;8.32;63.18;100592.20;1731463;81;25641;-59
2021/03/14 08:21:31;;;;;;;52.23;28.85;;;;;;;8.46;61.56;100595.46;1706231;82;26748;-59
2021/03/14 08:24:02;;;;;;;54.67;28.95;;;;;;;8.59;60.54;100592.64;1706066;83;25672;-59
2021/03/14 08:26:35;;;;;;;51.92;26.35;;;;;;;8.66;58.85;100592.13;1711033;82;25870;-59
2021/03/14 08:29:13;;;;;;;51.28;26.60;;;;;;;8.69;58.59;100589.19;1714160;82;25528;-60
2021/03/14 08:31:55;;;;;;;61.58;28.32;;;;;;;8.75;58.83;100576.59;1707057;82;26342;-59
2021/03/14 08:34:34;;;;;;;47.35;25.12;;;;;;;8.81;59.19;100573.39;1715703;82;26020;-60
2021/03/14 08:37:25;;;;;;;56.75;25.60;;;;;;;8.87;58.37;100581.41;1724373;82;25642;-60
2021/03/14 08:40:07;;;;;;;52.62;25.65;;;;;;;8.93;58.16;100586.25;1719828;82;25801;-60
2021/03/14 08:42:55;;;;;;;50.78;24.45;;;;;;;9.05;57.40;100587.91;1700762;82;25659;-60
2021/03/14 08:45:28;;;;;;;59.00;25.30;;;;;;;9.20;57.75;100583.53;1708740;82;26278;-58
2021/03/14 08:48:04;;;;;;;51.75;25.45;;;;;;;9.35;56.45;100581.36;1719466;82;27634;-59
2021/03/14 08:50:33;;;;;;;47.93;24.23;;;;;;;9.51;56.44;100580.38;1681253;82;26077;-59
2021/03/14 08:53:03;;;;;;;46.68;23.40;;;;;;;9.70;56.16;100569.37;1708045;82;25472;-59
2021/03/14 08:55:45;;;;;;;39.40;21.87;;;;;;;9.91;54.94;100574.67;1711231;82;25728;-58
2021/03/14 08:58:16;;;;;;;54.27;25.88;;;;;;;10.09;54.03;100566.81;1719129;82;25693;-58
2021/03/14 09:01:09;;;;;;;51.33;24.63;;;;;;;10.30;55.08;100566.70;1704523;83;27545;-59
2021/03/14 09:03:44;;;;;;;38.80;22.55;;;;;;;10.55;53.27;100560.95;1723819;81;25725;-60
2021/03/14 09:06:31;;;;;;;54.03;27.22;;;;;;;10.83;52.75;100551.67;1720458;82;25734;-60
2021/03/14 09:09:05;;;;;;;48.48;27.37;;;;;;;11.10;53.81;100546.39;1720160;82;25776;-59
2021/03/14 09:11:50;;;;;;;50.85;26.40;;;;;;;11.42;53.50;100551.88;1715327;82;25827;-60
2021/03/14 09:14:34;;;;;;;45.23;26.70;;;;;;;11.60;52.83;100563.23;1704956;81;27532;-59
2021/03/14 09:17:15;;;;;;;53.10;27.10;;;;;;;11.85;53.23;100559.00;1721759;82;25673;-59
2021/03/14 09:19:56;;;;;;;49.20;25.68;;;;;;;12.14;51.89;100560.72;1714763;82;25683;-59
2021/03/14 09:22:32;;;;;;;47.23;25.62;;;;;;;12.42;51.54;100548.51;1702973;82;25681;-60
2021/03/14 09:25:05;;;;;;;47.85;23.92;;;;;;;12.70;50.98;100548.94;1754702;81;25734;-60
2021/03/14 09:27:37;;;;;;;48.85;25.85;;;;;;;13.11;51.30;100550.11;1696301;82;27523;-60
2021/03/14 09:30:22;;;;;;;36.33;20.90;;;;;;;13.61;49.34;100549.92;1711133;81;25729;-60
2021/03/14 09:33:02;;;;;;;41.25;20.77;;;;;;;14.29;46.40;100562.16;1706957;82;25735;-59
2021/03/14 09:35:37;;;;;;;35.38;19.95;;;;;;;15.14;43.25;100553.41;1705631;81;25743;-60
2021/03/14 09:38:11;;;;;;;39.13;20.77;;;;;;;15.79;40.35;100563.73;1709323;81;25776;-60
2021/03/14 09:40:48;;;;;;;34.18;19.20;;;;;;;16.34;39.18;100538.05;1697746;81;27720;-60
2021/03/14 09:43:26;;;;;;;31.60;20.02;;;;;;;16.78;38.65;100537.87;1727353;82;25913;-60
2021/03/14 09:46:12;;;;;;;33.95;18.25;;;;;;;17.31;36.89;100527.05;1826753;78;25623;-61
2021/03/14 09:48:45;;;;;;;36.83;20.50;;;;;;;17.78;36.01;100540.78;1811288;78;25723;-60
2021/03/14 09:51:17;;;;;;;29.27;17.75;;;;;;;18.07;36.67;100538.22;1791632;78;27748;-60
2021/03/14 09:53:45;;;;;;;34.05;17.87;;;;;;;18.54;36.56;100543.66;1788567;79;25559;-60
2021/03/14 09:56:17;;;;;;;35.13;19.02;;;;;;;18.87;34.58;100540.91;1810408;79;26223;-60
2021/03/14 09:58:47;;;;;;;30.95;17.92;;;;;;;18.68;35.57;100542.41;1738271;80;25686;-60
2021/03/14 10:01:16;;;;;;;27.80;16.82;;;;;;;18.15;35.84;100537.56;1791654;79;25473;-60
2021/03/14 10:03:48;;;;;;;23.95;16.73;;;;;;;17.85;36.15;100528.59;1781408;80;28417;-60
2021/03/14 10:06:20;;;;;;;34.50;18.50;;;;;;;17.65;36.55;100526.48;1789053;79;26186;-60
2021/03/14 10:08:52;;;;;;;27.63;18.10;;;;;;;17.61;36.56;100517.00;1780556;80;25777;-61
2021/03/14 10:11:20;;;;;;;26.25;18.10;;;;;;;17.66;36.03;100520.52;1787236;79;26134;-61
2021/03/14 10:13:52;;;;;;;25.45;17.02;;;;;;;17.72;35.83;100512.12;1806315;78;25695;-60
2021/03/14 10:16:24;;;;;;;26.48;16.30;;;;;;;17.72;36.42;100498.52;1813888;78;27339;-61
2021/03/14 10:18:59;;;;;;;30.25;15.95;;;;;;;17.90;36.01;100498.95;1818724;78;25946;-60
2021/03/14 10:21:29;;;;;;;25.72;15.98;;;;;;;18.29;34.66;100505.05;1771447;80;25699;-60
2021/03/14 10:24:21;;;;;;;25.67;15.57;;;;;;;18.44;34.71;100492.21;1748472;81;25734;-61
2021/03/14 10:27:04;;;;;;;31.15;15.40;;;;;;;18.74;33.70;100492.06;1747851;81;25599;-60
2021/03/14 10:29:42;;;;;;;22.77;14.43;;;;;;;19.44;32.57;100484.48;1745185;82;27541;-60
2021/03/14 10:32:28;;;;;;;38.80;15.18;;;;;;;19.79;31.58;100490.39;1747528;81;25775;-60
2021/03/14 10:35:03;;;;;;;28.77;15.48;;;;;;;20.03;32.11;100471.83;1735841;81;25748;-60
2021/03/14 10:37:36;;;;;;;20.43;14.30;;;;;;;20.15;31.12;100452.41;1749737;81;26149;-60
2021/03/14 10:40:13;;;;;;;22.37;14.47;;;;;;;20.49;31.09;100442.34;1750855;81;26088;-60
2021/03/14 10:42:47;;;;;;;31.05;17.90;;;;;;;20.60;30.77;100435.44;1748021;81;28504;-60
2021/03/14 10:45:23;;;;;;;22.95;16.05;;;;;;;20.69;31.59;100430.06;1720604;81;25727;-58
2021/03/14 10:48:06;;;;;;;28.30;18.62;;;;;;;20.37;32.03;100438.05;1694152;83;26199;-60
2021/03/14 10:50:37;;;;;;;45.67;20.80;;;;;;;20.14;32.55;100431.10;1688839;83;25675;-60
2021/03/14 10:53:22;;;;;;;26.57;19.20;;;;;;;19.52;33.28;100420.71;1835582;78;25394;-59
2021/03/14 10:56:13;;;;;;;33.33;18.75;;;;;;;19.44;33.84;100415.44;1806540;79;25678;-59
2021/03/14 10:58:44;;;;;;;30.60;20.23;;;;;;;19.46;34.07;100415.55;1741999;82;27537;-59
2021/03/14 11:01:36;;;;;;;29.50;20.50;;;;;;;19.19;33.79;100414.06;1833022;78;25937;-60
2021/03/14 11:04:06;;;;;;;28.32;21.00;;;;;;;18.64;34.44;100408.46;1800250;78;25796;-61
2021/03/14 11:06:37;;;;;;;34.98;20.97;;;;;;;18.53;35.55;100422.61;1803521;79;27960;-60
2021/03/14 11:09:10;;;;;;;32.15;21.93;;;;;;;18.89;35.46;100402.03;1795253;79;25627;-60
2021/03/14 11:11:44;;;;;;;40.23;22.58;;;;;;;18.63;34.94;100397.77;1797177;79;25810;-60
2021/03/14 11:14:36;;;;;;;29.92;21.25;;;;;;;18.20;35.82;100400.87;1776409;78;25631;-60
2021/03/14 11:17:18;;;;;;;32.50;20.68;;;;;;;18.15;36.56;100402.81;1787640;79;25461;-60
2021/03/14 11:19:51;;;;;;;35.45;22.75;;;;;;;18.32;36.01;100397.13;1772332;80;27037;-60
2021/03/14 11:22:21;;;;;;;28.10;21.27;;;;;;;18.53;35.54;100388.56;1777685;79;25567;-60
2021/03/14 11:24:51;;;;;;;33.48;20.75;;;;;;;18.30;35.83;100391.02;1790088;79;25766;-60
2021/03/14 11:27:21;;;;;;;31.15;20.48;;;;;;;18.57;35.65;100385.78;1787651;78;25636;-60
2021/03/14 11:29:50;;;;;;;34.13;21.70;;;;;;;18.80;35.92;100390.11;1797996;78;26581;-60
2021/03/14 11:32:21;;;;;;;53.45;22.30;;;;;;;19.01;35.01;100387.34;1800327;78;28491;-60
2021/03/14 11:34:51;;;;;;;32.45;21.52;;;;;;;18.86;35.65;100377.89;1777549;79;25427;-59
2021/03/14 11:37:39;;;;;;;38.73;23.12;;;;;;;18.88;35.89;100374.96;1773543;80;25692;-60
2021/03/14 11:40:27;;;;;;;39.65;26.48;;;;;;;19.08;35.99;100374.59;1752140;81;26055;-59